createdAt,value
2022-12-08T00:01:41.564Z,1.50
2022-12-08T00:04:09.677Z,1.50
2022-12-08T00:06:57.575Z,1.50
2022-12-08T00:09:32.040Z,1.50
2022-12-08T00:12:04.606Z,1.50
2022-12-08T00:14:35.920Z,1.50
2022-12-08T00:17:04.372Z,1.50
2022-12-08T00:19:32.974Z,1.50
2022-12-08T00:22:01.724Z,1.50
2022-12-08T00:24:32.897Z,1.50
2022-12-08T00:27:00.910Z,1.50
2022-12-08T00:29:29.161Z,1.60
2022-12-08T00:31:58.847Z,1.60
2022-12-08T00:34:26.966Z,1.60
2022-12-08T00:36:54.967Z,1.60
2022-12-08T00:39:23.014Z,1.50
2022-12-08T00:42:08.212Z,1.50
2022-12-08T00:44:36.227Z,1.50
2022-12-08T00:47:05.963Z,1.60
2022-12-08T00:49:33.949Z,1.50
2022-12-08T00:52:02.360Z,1.60
2022-12-08T00:54:30.450Z,1.60
2022-12-08T00:56:58.543Z,1.60
2022-12-08T00:59:26.589Z,1.60
2022-12-08T01:01:54.569Z,1.60
2022-12-08T01:04:24.026Z,1.60
2022-12-08T01:06:52.028Z,1.60
2022-12-08T01:09:20.472Z,1.60
2022-12-08T01:11:48.750Z,1.60
2022-12-08T01:14:16.984Z,1.60
2022-12-08T01:16:45.353Z,1.70
2022-12-08T01:19:14.713Z,1.70
2022-12-08T01:21:44.784Z,1.70
2022-12-08T01:24:14.128Z,1.80
2022-12-08T01:26:42.506Z,1.70
2022-12-08T01:29:10.870Z,1.70
2022-12-08T01:31:39.580Z,1.70
2022-12-08T01:34:08.344Z,1.70
2022-12-08T01:36:38.476Z,1.80
2022-12-08T01:39:12.059Z,1.70
2022-12-08T01:41:40.459Z,1.70
2022-12-08T01:44:41.488Z,1.70
2022-12-08T01:47:10.290Z,1.70
2022-12-08T01:49:38.656Z,1.70
2022-12-08T01:52:12.098Z,1.70
2022-12-08T01:54:46.662Z,1.80
2022-12-08T01:57:19.564Z,1.80
2022-12-08T01:59:54.125Z,1.80
2022-12-08T02:02:22.658Z,1.80
2022-12-08T02:04:50.790Z,1.80
2022-12-08T02:07:19.688Z,1.80
2022-12-08T02:09:49.229Z,1.80
2022-12-08T02:12:17.326Z,1.80
2022-12-08T02:14:45.332Z,1.80
2022-12-08T02:17:29.074Z,1.80
2022-12-08T02:20:22.507Z,1.80
2022-12-08T02:22:56.768Z,1.80
2022-12-08T02:25:40.252Z,1.80
2022-12-08T02:28:29.787Z,1.70
2022-12-08T02:31:10.868Z,1.80
2022-12-08T02:34:07.237Z,1.70
2022-12-08T02:36:42.219Z,1.80
2022-12-08T02:39:22.006Z,1.80
2022-12-08T02:41:54.810Z,1.80
2022-12-08T02:44:31.149Z,1.80
2022-12-08T02:47:03.814Z,1.80
2022-12-08T02:49:34.630Z,1.80
2022-12-08T02:52:07.275Z,1.80
2022-12-08T02:54:37.154Z,1.80
2022-12-08T02:57:23.754Z,1.70
2022-12-08T03:00:04.197Z,1.70
2022-12-08T03:02:50.918Z,1.70
2022-12-08T03:05:32.557Z,1.70
2022-12-08T03:08:07.159Z,1.70
2022-12-08T03:10:38.979Z,1.60
2022-12-08T03:13:11.719Z,1.60
2022-12-08T03:15:41.042Z,1.60
2022-12-08T03:18:14.462Z,1.60
2022-12-08T03:20:45.577Z,1.60
2022-12-08T03:23:17.508Z,1.60
2022-12-08T03:25:52.439Z,1.60
2022-12-08T03:28:20.485Z,1.60
2022-12-08T03:30:50.898Z,1.60
2022-12-08T03:33:24.129Z,1.60
2022-12-08T03:35:55.015Z,1.60
2022-12-08T03:38:23.697Z,1.60
2022-12-08T03:41:05.596Z,1.60
2022-12-08T03:43:33.601Z,1.60
2022-12-08T03:46:01.640Z,1.60
2022-12-08T03:48:29.665Z,1.60
2022-12-08T03:50:58.990Z,1.60
2022-12-08T03:53:26.958Z,1.50
2022-12-08T03:55:55.649Z,1.60
2022-12-08T03:58:23.632Z,1.50
2022-12-08T04:00:51.665Z,1.60
2022-12-08T04:03:19.681Z,1.60
2022-12-08T04:05:48.232Z,1.60
2022-12-08T04:08:17.586Z,1.60
2022-12-08T04:10:45.573Z,1.60
2022-12-08T04:13:13.499Z,1.50
2022-12-08T04:15:45.254Z,1.50
2022-12-08T04:18:13.390Z,1.50
2022-12-08T04:20:41.627Z,1.50
2022-12-08T04:23:12.085Z,1.50
2022-12-08T04:25:41.770Z,1.50
2022-12-08T04:28:10.052Z,1.50
2022-12-08T04:30:38.083Z,1.50
2022-12-08T04:33:06.448Z,1.50
2022-12-08T04:35:34.437Z,1.50
2022-12-08T04:38:02.449Z,1.60
2022-12-08T04:40:30.384Z,1.50
2022-12-08T04:42:59.720Z,1.60
2022-12-08T04:45:27.647Z,1.60
2022-12-08T04:47:55.646Z,1.60
2022-12-08T04:50:23.626Z,1.60
2022-12-08T04:52:51.611Z,1.60
2022-12-08T04:55:21.111Z,1.60
2022-12-08T04:57:49.070Z,1.60
2022-12-08T05:00:19.216Z,1.60
2022-12-08T05:02:47.215Z,1.60
2022-12-08T05:05:15.245Z,1.70
2022-12-08T05:07:43.357Z,1.60
2022-12-08T05:10:11.573Z,1.70
2022-12-08T05:12:39.573Z,1.60
2022-12-08T05:15:08.720Z,1.70
2022-12-08T05:17:38.021Z,1.70
2022-12-08T05:20:07.253Z,1.70
2022-12-08T05:22:35.305Z,1.80
2022-12-08T05:25:03.295Z,1.80
2022-12-08T05:27:31.231Z,1.80
2022-12-08T05:29:59.163Z,1.80
2022-12-08T05:32:27.114Z,1.80
2022-12-08T05:34:56.485Z,1.80
2022-12-08T05:37:24.407Z,1.80
2022-12-08T05:39:52.376Z,1.80
2022-12-08T05:42:24.608Z,1.80
2022-12-08T05:44:53.019Z,1.80
2022-12-08T05:47:21.101Z,1.80
2022-12-08T05:49:49.294Z,1.80
2022-12-08T05:52:18.628Z,1.80
2022-12-08T05:54:46.578Z,1.90
2022-12-08T05:57:14.575Z,1.90
2022-12-08T05:59:42.555Z,1.90
2022-12-08T06:02:10.555Z,1.90
2022-12-08T06:04:38.611Z,1.90
2022-12-08T06:07:06.980Z,1.90
2022-12-08T06:09:37.368Z,1.90
2022-12-08T06:12:05.740Z,1.90
2022-12-08T06:14:33.640Z,1.90
2022-12-08T06:17:01.665Z,1.80
2022-12-08T06:19:29.712Z,1.80
2022-12-08T06:21:57.656Z,1.80
2022-12-08T06:24:25.661Z,1.80
2022-12-08T06:26:54.973Z,1.70
2022-12-08T06:29:23.076Z,1.70
2022-12-08T06:31:52.350Z,1.70
2022-12-08T06:34:20.333Z,1.70
2022-12-08T06:36:48.278Z,1.70
2022-12-08T06:39:16.302Z,1.70
2022-12-08T06:41:58.174Z,1.70
2022-12-08T06:44:27.568Z,1.70
2022-12-08T06:46:55.530Z,1.70
2022-12-08T06:49:23.507Z,1.70
2022-12-08T06:51:51.475Z,1.70
2022-12-08T06:54:19.545Z,1.70
2022-12-08T06:56:47.518Z,1.70
2022-12-08T06:59:15.413Z,1.70
2022-12-08T07:01:44.779Z,1.70
2022-12-08T07:04:12.828Z,1.70
2022-12-08T07:06:41.130Z,1.70
2022-12-08T07:09:09.279Z,1.70
2022-12-08T07:11:38.938Z,1.80
2022-12-08T07:14:06.983Z,1.80
2022-12-08T07:16:35.402Z,1.80
2022-12-08T07:19:04.811Z,1.80
2022-12-08T07:21:32.941Z,1.80
2022-12-08T07:24:01.550Z,1.80
2022-12-08T07:26:29.500Z,1.80
2022-12-08T07:28:57.483Z,1.70
2022-12-08T07:31:26.767Z,1.80
2022-12-08T07:33:55.045Z,1.80
2022-12-08T07:36:25.463Z,1.80
2022-12-08T07:38:54.280Z,1.80
2022-12-08T07:41:24.614Z,1.80
2022-12-08T07:43:53.554Z,1.70
2022-12-08T07:46:24.793Z,1.70
2022-12-08T07:48:53.349Z,1.80
2022-12-08T07:51:22.007Z,1.80
2022-12-08T07:53:54.479Z,1.80
2022-12-08T07:56:23.977Z,1.80
2022-12-08T07:58:52.098Z,1.80
2022-12-08T08:01:22.873Z,1.90
2022-12-08T08:03:51.374Z,1.90
2022-12-08T08:06:19.356Z,1.90
2022-12-08T08:08:47.387Z,1.80
2022-12-08T08:11:21.269Z,1.80
2022-12-08T08:13:49.833Z,1.90
2022-12-08T08:16:18.697Z,1.90
2022-12-08T08:18:48.994Z,1.90
2022-12-08T08:24:06.191Z,1.90
2022-12-08T08:26:35.627Z,1.90
2022-12-08T08:29:03.813Z,1.90
2022-12-08T08:31:31.842Z,1.90
2022-12-08T08:34:04.893Z,1.90
2022-12-08T08:36:33.965Z,1.90
2022-12-08T08:39:02.020Z,1.90
2022-12-08T08:41:30.044Z,1.90
2022-12-08T08:43:59.464Z,1.90
2022-12-08T08:46:27.524Z,1.90
2022-12-08T08:48:55.650Z,1.90
2022-12-08T08:51:23.663Z,1.90
2022-12-08T08:53:51.766Z,1.80
2022-12-08T08:56:20.588Z,1.90
2022-12-08T08:58:49.930Z,1.90
2022-12-08T09:01:22.054Z,1.90
2022-12-08T09:03:50.488Z,1.90
2022-12-08T09:06:18.934Z,1.90
2022-12-08T09:08:49.065Z,1.90
2022-12-08T09:11:18.594Z,1.90
2022-12-08T09:13:49.431Z,1.90
2022-12-08T09:16:19.381Z,1.90
2022-12-08T09:18:48.308Z,1.90
2022-12-08T09:21:22.595Z,1.90
2022-12-08T09:23:51.137Z,1.90
2022-12-08T09:26:22.299Z,2.00
2022-12-08T09:28:50.471Z,1.90
2022-12-08T09:31:20.668Z,1.90
2022-12-08T09:33:51.463Z,1.90
2022-12-08T09:36:19.533Z,1.90
2022-12-08T09:38:47.837Z,1.90
2022-12-08T09:41:18.775Z,1.90
2022-12-08T09:44:03.699Z,1.90
2022-12-08T09:46:35.459Z,1.90
2022-12-08T09:49:04.320Z,1.90
2022-12-08T09:51:38.978Z,1.90
2022-12-08T09:54:13.063Z,1.90
2022-12-08T09:56:41.299Z,1.90
2022-12-08T09:59:23.178Z,1.90
2022-12-08T10:01:53.136Z,1.90
2022-12-08T10:04:25.275Z,1.90
2022-12-08T10:07:02.441Z,1.90
2022-12-08T10:09:40.404Z,1.90
2022-12-08T10:12:18.542Z,2.00
2022-12-08T10:14:52.503Z,1.90
2022-12-08T10:17:26.009Z,2.00
2022-12-08T10:20:00.691Z,2.00
2022-12-08T10:22:37.589Z,2.00
2022-12-08T10:25:12.064Z,2.00
2022-12-08T10:27:40.062Z,2.00
2022-12-08T10:30:19.448Z,2.00
2022-12-08T10:32:51.644Z,2.00
2022-12-08T10:35:22.559Z,2.00
2022-12-08T10:37:57.205Z,2.00
2022-12-08T10:40:28.067Z,2.00
2022-12-08T10:42:59.382Z,2.00
2022-12-08T10:45:30.289Z,2.00
2022-12-08T10:48:04.701Z,2.00
2022-12-08T10:50:35.766Z,2.00
2022-12-08T10:53:15.527Z,2.00
2022-12-08T10:55:46.460Z,2.00
2022-12-08T10:58:29.688Z,2.00
2022-12-08T11:01:00.208Z,2.00
2022-12-08T11:03:31.404Z,2.00
2022-12-08T11:06:08.983Z,2.00
2022-12-08T11:08:48.579Z,2.00
2022-12-08T11:11:17.130Z,2.00
2022-12-08T11:13:45.327Z,2.00
2022-12-08T11:16:15.681Z,2.00
2022-12-08T11:18:47.012Z,2.00
2022-12-08T11:21:18.921Z,2.00
2022-12-08T11:23:49.480Z,2.00
2022-12-08T11:26:27.381Z,2.00
2022-12-08T11:28:55.490Z,2.00
2022-12-08T11:31:30.160Z,2.00
2022-12-08T11:33:59.649Z,2.00
2022-12-08T11:36:31.193Z,2.00
2022-12-08T11:39:02.981Z,2.00
2022-12-08T11:41:35.531Z,2.00
2022-12-08T11:44:07.184Z,2.00
2022-12-08T11:46:41.971Z,2.00
2022-12-08T11:49:14.284Z,2.10
2022-12-08T11:51:49.219Z,2.10
2022-12-08T11:54:23.616Z,2.00
2022-12-08T11:56:55.129Z,2.00
2022-12-08T11:59:29.616Z,2.10
2022-12-08T12:01:59.411Z,2.10
2022-12-08T12:04:33.211Z,2.10
2022-12-08T12:07:30.434Z,2.10
2022-12-08T12:10:14.047Z,2.10
2022-12-08T12:12:57.145Z,2.10
2022-12-08T12:15:45.196Z,2.10
2022-12-08T12:18:20.342Z,2.10
2022-12-08T12:20:54.547Z,2.10
2022-12-08T12:23:25.700Z,2.10
2022-12-08T12:25:59.075Z,2.10
2022-12-08T12:28:30.273Z,2.10
2022-12-08T12:31:02.925Z,2.10
2022-12-08T12:33:32.414Z,2.10
2022-12-08T12:36:06.130Z,2.10
2022-12-08T12:38:54.329Z,2.20
2022-12-08T12:41:27.238Z,2.10
2022-12-08T12:44:24.441Z,2.20
2022-12-08T12:47:00.329Z,2.10
2022-12-08T12:50:05.533Z,2.10
2022-12-08T12:52:42.931Z,2.10
2022-12-08T12:55:54.907Z,2.10
2022-12-08T12:58:42.766Z,2.10
2022-12-08T13:01:56.446Z,2.10
2022-12-08T13:04:34.625Z,2.10
2022-12-08T13:07:02.963Z,2.10
2022-12-08T13:09:37.001Z,2.10
2022-12-08T13:12:11.277Z,2.20
2022-12-08T13:14:46.666Z,2.20
2022-12-08T13:17:21.257Z,2.20
2022-12-08T13:19:54.041Z,2.20
2022-12-08T13:23:02.954Z,2.20
2022-12-08T13:25:53.685Z,2.20
2022-12-08T13:28:25.281Z,2.20
2022-12-08T13:30:54.269Z,2.20
2022-12-08T13:33:31.747Z,2.20
2022-12-08T13:36:22.397Z,2.20
2022-12-08T13:38:55.738Z,2.20
2022-12-08T13:41:32.436Z,2.20
2022-12-08T13:45:18.066Z,2.20
2022-12-08T13:47:25.176Z,2.20
2022-12-08T13:58:36.842Z,2.20
2022-12-08T14:01:10.046Z,2.20
2022-12-08T14:04:20.487Z,2.20
2022-12-08T14:06:39.119Z,2.20
2022-12-08T14:09:12.843Z,2.20
2022-12-08T14:11:42.900Z,2.20
2022-12-08T14:14:32.720Z,2.20
2022-12-08T14:17:08.247Z,2.20
2022-12-08T14:19:38.456Z,2.10
2022-12-08T14:22:12.432Z,2.10
2022-12-08T14:24:41.746Z,2.10
2022-12-08T14:27:13.584Z,2.20
2022-12-08T14:29:45.922Z,2.20
2022-12-08T14:32:30.190Z,2.20
2022-12-08T14:35:01.209Z,2.20
2022-12-08T14:37:33.212Z,2.10
2022-12-08T14:40:04.904Z,2.10
2022-12-08T14:42:43.946Z,2.10
2022-12-08T14:45:15.570Z,2.20
2022-12-08T14:47:45.659Z,2.20
2022-12-08T14:50:37.777Z,2.10
2022-12-08T14:53:10.934Z,2.20
2022-12-08T14:55:39.435Z,2.20
2022-12-08T14:58:07.675Z,2.20
2022-12-08T15:00:37.151Z,2.20
2022-12-08T15:03:08.122Z,2.10
2022-12-08T15:05:36.599Z,2.10
2022-12-08T15:08:06.384Z,2.10
2022-12-08T15:10:37.944Z,2.10
2022-12-08T15:13:21.066Z,2.10
2022-12-08T15:15:52.402Z,2.00
2022-12-08T15:18:23.771Z,2.10
2022-12-08T15:20:54.583Z,2.10
2022-12-08T15:23:26.836Z,2.00
2022-12-08T15:25:55.468Z,2.10
2022-12-08T15:28:29.741Z,2.00
2022-12-08T15:31:00.305Z,2.00
2022-12-08T15:33:28.816Z,2.10
2022-12-08T15:35:56.979Z,2.10
2022-12-08T15:38:27.329Z,2.10
2022-12-08T15:40:59.944Z,2.10
2022-12-08T15:43:30.019Z,2.10
2022-12-08T15:46:01.660Z,2.10
2022-12-08T15:48:31.436Z,2.10
2022-12-08T15:51:00.704Z,2.10
2022-12-08T15:53:28.854Z,2.10
2022-12-08T15:56:27.091Z,2.10
2022-12-08T15:58:54.056Z,2.10
2022-12-08T16:01:24.837Z,2.10
2022-12-08T16:04:27.900Z,2.10
2022-12-08T16:07:19.531Z,2.10
2022-12-08T16:09:33.298Z,2.10
2022-12-08T16:12:19.135Z,2.10
2022-12-08T16:15:49.685Z,2.10
2022-12-08T16:17:37.630Z,2.10
2022-12-08T16:20:07.319Z,2.00
2022-12-08T16:25:24.458Z,2.00
2022-12-08T16:28:17.276Z,2.00
2022-12-08T16:30:43.071Z,1.90
2022-12-08T16:33:13.293Z,1.90
2022-12-08T16:35:42.237Z,1.90
2022-12-08T16:38:14.675Z,1.90
2022-12-08T16:40:59.536Z,1.80
2022-12-08T16:43:27.473Z,1.90
2022-12-08T16:45:55.607Z,1.80
2022-12-08T16:48:25.092Z,1.80
2022-12-08T16:50:53.997Z,1.80
2022-12-08T16:53:22.060Z,1.70
2022-12-08T16:55:50.753Z,1.70
2022-12-08T16:58:19.821Z,1.70
2022-12-08T17:00:48.283Z,1.70
2022-12-08T17:03:17.708Z,1.70
2022-12-08T17:05:47.101Z,1.70
2022-12-08T17:08:15.176Z,1.70
2022-12-08T17:10:43.887Z,1.70
2022-12-08T17:13:13.063Z,1.70
2022-12-08T17:15:41.333Z,1.70
2022-12-08T17:18:09.286Z,1.70
2022-12-08T17:20:37.233Z,1.70
2022-12-08T17:23:07.598Z,1.70
2022-12-08T17:25:37.299Z,1.70
2022-12-08T17:28:05.375Z,1.70
2022-12-08T17:30:33.310Z,1.80
2022-12-08T17:33:01.393Z,1.80
2022-12-08T17:35:29.361Z,1.80
2022-12-08T17:37:57.511Z,1.80
2022-12-08T17:40:28.314Z,1.80
2022-12-08T17:42:56.570Z,1.80
2022-12-08T17:45:24.594Z,1.80
2022-12-08T17:47:52.643Z,1.80
2022-12-08T17:50:20.618Z,1.80
2022-12-08T17:52:50.949Z,1.80
2022-12-08T17:55:19.306Z,1.90
2022-12-08T17:57:48.806Z,1.90
2022-12-08T18:00:17.287Z,1.90
2022-12-08T18:02:45.927Z,1.80
2022-12-08T18:05:14.049Z,1.80
2022-12-08T18:07:42.301Z,1.80
2022-12-08T18:10:10.704Z,1.80
2022-12-08T18:12:39.145Z,1.80
2022-12-08T18:15:11.954Z,1.80
2022-12-08T18:17:44.157Z,1.80
2022-12-08T18:20:13.585Z,1.90
2022-12-08T18:22:42.491Z,1.90
2022-12-08T18:25:12.630Z,1.90
2022-12-08T18:27:43.199Z,1.80
2022-12-08T18:30:18.471Z,1.80
2022-12-08T18:32:47.077Z,1.80
2022-12-08T18:35:15.499Z,1.80
2022-12-08T18:37:44.235Z,1.80
2022-12-08T18:40:14.457Z,1.90
2022-12-08T18:42:42.698Z,1.80
2022-12-08T18:45:11.704Z,1.80
2022-12-08T18:47:41.993Z,1.80
2022-12-08T18:50:12.615Z,1.80
2022-12-08T18:52:41.308Z,1.80
2022-12-08T18:55:10.581Z,1.80
2022-12-08T18:57:39.700Z,1.80
2022-12-08T19:00:10.330Z,1.80
2022-12-08T19:02:40.586Z,1.80
2022-12-08T19:05:10.478Z,1.80
2022-12-08T19:07:38.986Z,1.80
2022-12-08T19:10:08.910Z,1.80
2022-12-08T19:12:37.608Z,1.80
2022-12-08T19:15:06.862Z,1.70
2022-12-08T19:17:35.307Z,1.70
2022-12-08T19:20:06.062Z,1.80
2022-12-08T19:22:34.778Z,1.70
2022-12-08T19:25:03.899Z,1.70
2022-12-08T19:27:34.220Z,1.70
2022-12-08T19:30:02.706Z,1.60
2022-12-08T19:32:31.045Z,1.50
2022-12-08T19:34:59.063Z,1.60
2022-12-08T19:37:28.416Z,1.50
2022-12-08T19:40:13.818Z,1.50
2022-12-08T19:42:59.503Z,1.40
2022-12-08T19:45:28.151Z,1.40
2022-12-08T19:47:56.182Z,1.30
2022-12-08T19:50:40.284Z,1.30
2022-12-08T19:53:11.897Z,1.30
2022-12-08T19:55:40.421Z,1.30
2022-12-08T19:58:09.077Z,1.20
2022-12-08T20:00:39.152Z,1.10
2022-12-08T20:03:07.930Z,1.10
2022-12-08T20:05:37.909Z,1.10
2022-12-08T20:08:06.541Z,1.00
2022-12-08T20:10:38.255Z,1.00
2022-12-08T20:13:24.614Z,1.00
2022-12-08T20:15:52.739Z,1.00
2022-12-08T20:18:21.089Z,1.00
2022-12-08T20:20:49.860Z,1.00
2022-12-08T20:23:18.054Z,0.90
2022-12-08T20:25:47.838Z,0.90
2022-12-08T20:28:16.061Z,0.90
2022-12-08T20:30:46.869Z,0.80
2022-12-08T20:33:15.292Z,0.80
2022-12-08T20:35:43.987Z,0.90
2022-12-08T20:38:12.779Z,0.80
2022-12-08T20:40:43.156Z,0.80
2022-12-08T20:43:12.442Z,0.90
2022-12-08T20:45:40.510Z,0.90
2022-12-08T20:48:08.476Z,0.90
2022-12-08T20:50:36.470Z,0.90
2022-12-08T20:53:04.493Z,0.80
2022-12-08T20:55:32.433Z,0.80
2022-12-08T20:58:00.552Z,0.90
2022-12-08T21:00:29.928Z,0.80
2022-12-08T21:02:58.051Z,0.80
2022-12-08T21:05:26.436Z,0.80
2022-12-08T21:07:54.517Z,0.80
2022-12-08T21:10:22.558Z,0.90
2022-12-08T21:12:50.649Z,0.80
2022-12-08T21:15:18.901Z,0.90
2022-12-08T21:17:48.426Z,0.80
2022-12-08T21:20:16.629Z,0.90
2022-12-08T21:22:44.639Z,0.80
2022-12-08T21:25:12.695Z,0.80
2022-12-08T21:27:41.234Z,0.80
2022-12-08T21:30:11.740Z,0.80
2022-12-08T21:32:40.719Z,0.80
2022-12-08T21:35:11.159Z,0.80
2022-12-08T21:37:39.303Z,0.80
2022-12-08T21:40:08.703Z,0.90
2022-12-08T21:42:46.351Z,0.90
2022-12-08T21:45:16.457Z,0.90
2022-12-08T21:47:45.752Z,0.90
2022-12-08T21:50:15.811Z,0.90
2022-12-08T21:52:45.841Z,0.90
2022-12-08T21:55:15.078Z,0.90
2022-12-08T21:57:43.225Z,0.90
2022-12-08T22:00:15.042Z,0.90
2022-12-08T22:02:43.313Z,0.90
2022-12-08T22:05:12.303Z,0.90
2022-12-08T22:07:42.498Z,0.90
2022-12-08T22:10:11.384Z,0.90
2022-12-08T22:12:40.320Z,0.90
2022-12-08T22:15:10.989Z,0.90
2022-12-08T22:17:40.154Z,0.80
2022-12-08T22:20:12.134Z,0.80
2022-12-08T22:22:42.242Z,0.80
2022-12-08T22:25:12.606Z,0.80
2022-12-08T22:27:41.801Z,0.80
2022-12-08T22:30:12.145Z,0.70
2022-12-08T22:32:42.078Z,0.70
2022-12-08T22:35:13.152Z,0.70
2022-12-08T22:37:42.806Z,0.70
2022-12-08T22:40:12.315Z,0.70
2022-12-08T22:42:40.646Z,0.70
2022-12-08T22:45:09.944Z,0.80
2022-12-08T22:47:38.049Z,0.70
2022-12-08T22:50:09.471Z,0.70
2022-12-08T22:52:38.212Z,0.70
2022-12-08T22:55:08.817Z,0.70
2022-12-08T22:57:36.892Z,0.70
2022-12-08T23:00:07.487Z,0.70
2022-12-08T23:02:37.937Z,0.70
2022-12-08T23:05:06.880Z,0.70
2022-12-08T23:07:35.153Z,0.60
2022-12-08T23:10:03.337Z,0.60
2022-12-08T23:12:33.401Z,0.50
2022-12-08T23:15:01.476Z,0.60
2022-12-08T23:17:29.582Z,0.60
2022-12-08T23:19:57.619Z,0.50
2022-12-08T23:22:25.857Z,0.50
2022-12-08T23:24:54.013Z,0.50
2022-12-08T23:27:21.988Z,0.50
2022-12-08T23:29:51.464Z,0.50
2022-12-08T23:32:19.743Z,0.50
2022-12-08T23:34:47.963Z,0.50
2022-12-08T23:37:16.079Z,0.50
2022-12-08T23:39:44.163Z,0.60
2022-12-08T23:42:12.807Z,0.60
2022-12-08T23:44:40.854Z,0.60
2022-12-08T23:47:10.323Z,0.60
2022-12-08T23:49:38.470Z,0.60
2022-12-08T23:52:06.734Z,0.50
2022-12-08T23:54:35.891Z,0.50
2022-12-08T23:57:04.010Z,0.60
2022-12-08T23:59:32.573Z,0.50
